createdAt,value
2022-10-22T00:01:05.174Z,14.10
2022-10-22T00:03:32.274Z,14.10
2022-10-22T00:05:59.079Z,14.10
2022-10-22T00:08:25.777Z,14.10
2022-10-22T00:10:52.977Z,14.10
2022-10-22T00:13:19.975Z,14.00
2022-10-22T00:15:46.726Z,14.00
2022-10-22T00:18:13.427Z,14.10
2022-10-22T00:20:40.116Z,14.10
2022-10-22T00:23:06.832Z,14.10
2022-10-22T00:25:35.980Z,14.10
2022-10-22T00:28:03.665Z,14.10
2022-10-22T00:30:30.609Z,14.10
2022-10-22T00:32:57.351Z,14.10
2022-10-22T00:35:24.265Z,14.10
2022-10-22T00:37:50.943Z,14.10
2022-10-22T00:40:17.805Z,14.10
2022-10-22T00:42:44.579Z,14.10
2022-10-22T00:45:11.247Z,14.10
2022-10-22T00:47:44.193Z,14.10
2022-10-22T00:50:32.109Z,14.20
2022-10-22T00:52:59.493Z,14.20
2022-10-22T00:55:27.947Z,14.10
2022-10-22T00:57:57.155Z,14.20
2022-10-22T01:00:24.565Z,14.10
2022-10-22T01:02:53.563Z,14.20
2022-10-22T01:05:21.343Z,14.10
2022-10-22T01:07:53.329Z,14.10
2022-10-22T01:10:31.283Z,14.10
2022-10-22T01:13:30.933Z,14.10
2022-10-22T01:16:17.240Z,14.10
2022-10-22T01:18:55.191Z,14.10
2022-10-22T01:21:33.002Z,14.10
2022-10-22T01:24:25.622Z,14.10
2022-10-22T01:27:04.367Z,14.00
2022-10-22T01:29:36.728Z,14.00
2022-10-22T01:32:15.405Z,14.10
2022-10-22T01:34:47.003Z,14.10
2022-10-22T01:37:17.134Z,14.10
2022-10-22T01:39:46.968Z,14.00
2022-10-22T01:42:14.674Z,14.00
2022-10-22T01:44:42.338Z,14.00
2022-10-22T01:47:29.563Z,14.00
2022-10-22T01:50:11.295Z,14.10
2022-10-22T01:52:59.156Z,14.10
2022-10-22T01:55:52.354Z,14.00
2022-10-22T01:58:37.931Z,14.00
2022-10-22T02:01:14.567Z,14.00
2022-10-22T02:03:49.490Z,14.00
2022-10-22T02:06:20.578Z,13.90
2022-10-22T02:08:49.673Z,14.00
2022-10-22T02:11:16.848Z,14.00
2022-10-22T02:13:51.524Z,14.00
2022-10-22T02:16:34.715Z,13.90
2022-10-22T02:19:09.737Z,13.90
2022-10-22T02:21:36.561Z,13.90
2022-10-22T02:24:03.464Z,13.80
2022-10-22T02:26:40.284Z,13.90
2022-10-22T02:29:24.313Z,13.80
2022-10-22T02:31:53.560Z,13.80
2022-10-22T02:34:24.037Z,13.80
2022-10-22T02:36:52.034Z,13.80
2022-10-22T02:39:20.811Z,13.80
2022-10-22T02:41:48.209Z,13.80
2022-10-22T02:44:14.885Z,13.80
2022-10-22T02:46:43.540Z,13.80
2022-10-22T02:49:10.235Z,13.80
2022-10-22T02:51:36.956Z,13.80
2022-10-22T02:54:03.928Z,13.90
2022-10-22T02:56:30.642Z,13.90
2022-10-22T02:58:57.282Z,13.90
2022-10-22T03:01:24.264Z,13.90
2022-10-22T03:03:51.081Z,13.90
2022-10-22T03:06:18.738Z,13.90
2022-10-22T03:08:46.173Z,14.00
2022-10-22T03:11:13.044Z,14.00
2022-10-22T03:13:39.772Z,14.00
2022-10-22T03:16:06.864Z,14.00
2022-10-22T03:18:33.707Z,14.00
2022-10-22T03:21:23.180Z,14.00
2022-10-22T03:23:50.084Z,14.00
2022-10-22T03:26:16.819Z,14.00
2022-10-22T03:28:43.837Z,14.00
2022-10-22T03:31:10.508Z,14.00
2022-10-22T03:33:37.190Z,14.00
2022-10-22T03:36:04.257Z,14.00
2022-10-22T03:38:31.140Z,14.00
2022-10-22T03:40:58.174Z,14.00
2022-10-22T03:43:25.029Z,14.00
2022-10-22T03:45:51.727Z,14.00
2022-10-22T03:48:18.381Z,14.00
2022-10-22T03:50:45.078Z,14.00
2022-10-22T03:53:11.908Z,14.00
2022-10-22T03:55:40.910Z,14.00
2022-10-22T03:58:07.684Z,14.00
2022-10-22T04:00:35.828Z,14.00
2022-10-22T04:03:02.608Z,14.00
2022-10-22T04:05:29.347Z,14.00
2022-10-22T04:07:56.026Z,14.00
2022-10-22T04:10:22.699Z,14.00
2022-10-22T04:12:49.494Z,14.00
2022-10-22T04:15:16.739Z,14.00
2022-10-22T04:17:43.687Z,14.00
2022-10-22T04:20:10.961Z,14.00
2022-10-22T04:22:37.809Z,13.90
2022-10-22T04:25:06.230Z,14.00
2022-10-22T04:27:33.688Z,14.00
2022-10-22T04:30:00.538Z,14.00
2022-10-22T04:32:28.384Z,14.00
2022-10-22T04:34:55.056Z,14.00
2022-10-22T04:37:21.954Z,14.00
2022-10-22T04:39:48.977Z,14.00
2022-10-22T04:42:15.753Z,14.00
2022-10-22T04:44:42.459Z,14.00
2022-10-22T04:47:09.141Z,13.90
2022-10-22T04:49:35.824Z,14.00
2022-10-22T04:52:02.572Z,13.90
2022-10-22T04:54:32.248Z,13.90
2022-10-22T04:57:00.179Z,14.00
2022-10-22T04:59:26.950Z,13.90
2022-10-22T05:01:53.819Z,13.90
2022-10-22T05:06:49.122Z,13.90
2022-10-22T05:09:20.544Z,13.90
2022-10-22T05:11:50.449Z,13.90
2022-10-22T05:14:22.769Z,13.90
2022-10-22T05:16:50.613Z,13.90
2022-10-22T05:19:26.458Z,13.90
2022-10-22T05:21:55.168Z,13.90
2022-10-22T05:24:22.516Z,13.90
2022-10-22T05:26:50.933Z,13.90
2022-10-22T05:29:18.134Z,13.90
2022-10-22T05:31:44.977Z,13.90
2022-10-22T05:34:12.060Z,13.90
2022-10-22T05:36:39.278Z,13.90
2022-10-22T05:39:06.373Z,13.90
2022-10-22T05:41:34.020Z,13.90
2022-10-22T05:44:01.337Z,13.90
2022-10-22T05:46:32.814Z,13.90
2022-10-22T05:49:02.295Z,14.00
2022-10-22T05:51:31.767Z,13.90
2022-10-22T05:54:00.935Z,13.90
2022-10-22T05:56:29.508Z,13.90
2022-10-22T05:58:57.021Z,13.90
2022-10-22T06:01:32.300Z,13.90
2022-10-22T06:04:01.321Z,13.90
2022-10-22T06:06:27.945Z,13.90
2022-10-22T06:08:55.768Z,13.90
2022-10-22T06:11:23.674Z,13.80
2022-10-22T06:13:51.336Z,13.80
2022-10-22T06:16:18.473Z,13.80
2022-10-22T06:18:45.223Z,13.80
2022-10-22T06:21:13.780Z,13.70
2022-10-22T06:23:41.304Z,13.70
2022-10-22T06:26:09.012Z,13.80
2022-10-22T06:28:36.382Z,13.80
2022-10-22T06:31:03.940Z,13.70
2022-10-22T06:33:32.814Z,13.70
2022-10-22T06:36:13.686Z,13.70
2022-10-22T06:38:40.902Z,13.70
2022-10-22T06:41:16.250Z,13.60
2022-10-22T06:43:45.291Z,13.60
2022-10-22T06:46:14.913Z,13.60
2022-10-22T06:48:52.342Z,13.70
2022-10-22T06:51:20.967Z,13.70
2022-10-22T06:53:48.304Z,13.80
2022-10-22T06:56:18.519Z,13.80
2022-10-22T06:58:48.676Z,14.00
2022-10-22T07:01:17.558Z,14.00
2022-10-22T07:03:44.282Z,14.10
2022-10-22T07:06:13.089Z,14.20
2022-10-22T07:08:41.202Z,14.30
2022-10-22T07:11:13.922Z,14.30
2022-10-22T07:13:40.880Z,14.40
2022-10-22T07:16:08.537Z,14.40
2022-10-22T07:18:36.818Z,14.50
2022-10-22T07:21:05.156Z,14.50
2022-10-22T07:23:31.993Z,14.60
2022-10-22T07:25:59.131Z,14.60
2022-10-22T07:28:25.956Z,14.60
2022-10-22T07:30:52.698Z,14.60
2022-10-22T07:33:19.430Z,14.60
2022-10-22T07:35:46.178Z,14.60
2022-10-22T07:38:12.958Z,14.70
2022-10-22T07:40:39.660Z,14.70
2022-10-22T07:43:06.381Z,14.80
2022-10-22T07:45:33.816Z,14.80
2022-10-22T07:48:01.743Z,15.00
2022-10-22T07:50:28.500Z,15.00
2022-10-22T07:52:58.538Z,15.00
2022-10-22T07:55:25.668Z,15.10
2022-10-22T07:57:52.354Z,15.20
2022-10-22T08:00:21.832Z,15.20
2022-10-22T08:02:51.247Z,15.40
2022-10-22T08:05:18.020Z,15.40
2022-10-22T08:07:45.288Z,15.40
2022-10-22T08:10:12.772Z,15.50
2022-10-22T08:12:40.588Z,15.50
2022-10-22T08:15:08.709Z,15.50
2022-10-22T08:17:35.951Z,15.50
2022-10-22T08:20:03.469Z,15.50
2022-10-22T08:22:30.185Z,15.50
2022-10-22T08:24:56.876Z,15.60
2022-10-22T08:27:23.699Z,15.60
2022-10-22T08:29:50.453Z,15.70
2022-10-22T08:32:17.268Z,15.80
2022-10-22T08:34:44.030Z,15.90
2022-10-22T08:37:14.198Z,16.00
2022-10-22T08:39:41.332Z,16.00
2022-10-22T08:42:32.257Z,16.10
2022-10-22T08:45:14.144Z,16.10
2022-10-22T08:47:47.045Z,16.10
2022-10-22T08:50:19.887Z,16.00
2022-10-22T08:52:52.316Z,16.00
2022-10-22T08:55:19.677Z,16.00
2022-10-22T08:57:59.238Z,16.00
2022-10-22T09:00:53.270Z,15.90
2022-10-22T09:03:33.371Z,15.90
2022-10-22T09:06:18.338Z,15.90
2022-10-22T09:08:46.773Z,15.90
2022-10-22T09:11:13.447Z,15.90
2022-10-22T09:13:45.645Z,15.90
2022-10-22T09:16:20.336Z,15.90
2022-10-22T09:18:52.776Z,15.90
2022-10-22T09:21:22.477Z,15.90
2022-10-22T09:24:13.004Z,15.90
2022-10-22T09:26:41.262Z,15.90
2022-10-22T09:29:17.277Z,16.00
2022-10-22T09:31:44.280Z,16.00
2022-10-22T09:34:15.887Z,15.90
2022-10-22T09:36:42.567Z,16.00
2022-10-22T09:39:45.700Z,16.00
2022-10-22T09:42:16.591Z,16.00
2022-10-22T09:44:46.311Z,16.10
2022-10-22T09:47:42.790Z,16.20
2022-10-22T09:50:20.358Z,16.20
2022-10-22T09:52:57.975Z,16.20
2022-10-22T09:55:25.601Z,16.20
2022-10-22T09:57:59.682Z,16.20
2022-10-22T10:00:29.671Z,16.10
2022-10-22T10:02:59.198Z,16.20
2022-10-22T10:05:30.888Z,16.10
2022-10-22T10:07:58.280Z,16.10
2022-10-22T10:10:34.690Z,16.10
2022-10-22T10:13:24.599Z,16.10
2022-10-22T10:16:10.799Z,16.10
2022-10-22T10:19:02.371Z,16.10
2022-10-22T10:21:39.755Z,16.10
2022-10-22T10:24:18.382Z,16.10
2022-10-22T10:27:12.512Z,16.00
2022-10-22T10:29:50.132Z,16.00
2022-10-22T10:32:31.146Z,16.00
2022-10-22T10:35:38.802Z,16.00
2022-10-22T10:38:29.574Z,16.00
2022-10-22T10:41:33.317Z,16.00
2022-10-22T10:44:09.479Z,16.10
2022-10-22T10:46:44.458Z,16.10
2022-10-22T10:49:17.474Z,16.10
2022-10-22T10:52:26.251Z,16.10
2022-10-22T10:55:10.909Z,16.10
2022-10-22T10:57:55.840Z,16.10
2022-10-22T11:00:23.689Z,16.10
2022-10-22T11:03:18.252Z,16.10
2022-10-22T11:06:03.727Z,16.20
2022-10-22T11:08:38.879Z,16.20
2022-10-22T11:11:33.280Z,16.30
2022-10-22T11:14:30.070Z,16.30
2022-10-22T11:17:11.827Z,16.40
2022-10-22T11:19:55.638Z,16.40
2022-10-22T11:22:35.585Z,16.50
2022-10-22T11:25:11.326Z,16.60
2022-10-22T11:27:44.152Z,16.60
2022-10-22T11:30:23.427Z,16.50
2022-10-22T11:32:54.330Z,16.50
2022-10-22T11:35:26.115Z,16.50
2022-10-22T11:37:55.077Z,16.50
2022-10-22T11:40:22.926Z,16.50
2022-10-22T11:42:54.423Z,16.50
2022-10-22T11:45:24.152Z,16.50
2022-10-22T11:47:56.953Z,16.50
2022-10-22T11:50:43.797Z,16.50
2022-10-22T11:53:13.569Z,16.50
2022-10-22T11:55:45.616Z,16.60
2022-10-22T11:58:33.047Z,16.60
2022-10-22T12:01:02.886Z,16.60
2022-10-22T12:03:32.637Z,16.60
2022-10-22T12:06:28.757Z,16.60
2022-10-22T12:09:07.108Z,16.60
2022-10-22T12:11:49.789Z,16.60
2022-10-22T12:14:19.753Z,16.50
2022-10-22T12:16:57.536Z,16.50
2022-10-22T12:19:29.089Z,16.50
2022-10-22T12:22:10.255Z,16.50
2022-10-22T12:24:41.190Z,16.50
2022-10-22T12:27:35.374Z,16.40
2022-10-22T12:30:16.755Z,16.50
2022-10-22T12:32:43.521Z,16.50
2022-10-22T12:35:19.427Z,16.50
2022-10-22T12:37:50.736Z,16.50
2022-10-22T12:40:23.250Z,16.50
2022-10-22T12:42:52.532Z,16.50
2022-10-22T12:45:22.565Z,16.50
2022-10-22T12:47:52.259Z,16.50
2022-10-22T12:50:23.075Z,16.50
2022-10-22T12:52:49.830Z,16.50
2022-10-22T12:55:19.606Z,16.50
2022-10-22T12:57:48.596Z,16.50
2022-10-22T13:00:24.836Z,16.50
2022-10-22T13:02:52.800Z,16.40
2022-10-22T13:05:19.652Z,16.50
2022-10-22T13:08:17.591Z,16.50
2022-10-22T13:10:51.578Z,16.50
2022-10-22T13:13:43.429Z,16.50
2022-10-22T13:16:30.093Z,16.50
2022-10-22T13:18:56.856Z,16.50
2022-10-22T13:21:23.586Z,16.50
2022-10-22T13:23:56.933Z,16.60
2022-10-22T13:26:30.713Z,16.60
2022-10-22T13:28:58.830Z,16.50
2022-10-22T13:31:28.180Z,16.50
2022-10-22T13:34:03.639Z,16.40
2022-10-22T13:36:33.483Z,16.40
2022-10-22T13:39:00.210Z,16.50
2022-10-22T13:41:34.466Z,16.40
2022-10-22T13:44:01.165Z,16.50
2022-10-22T13:46:29.084Z,16.50
2022-10-22T13:48:56.660Z,16.50
2022-10-22T13:51:30.838Z,16.50
2022-10-22T13:53:57.874Z,16.50
2022-10-22T13:56:24.520Z,16.50
2022-10-22T13:58:51.317Z,16.50
2022-10-22T14:01:25.144Z,16.50
2022-10-22T14:03:54.598Z,16.60
2022-10-22T14:06:22.587Z,16.60
2022-10-22T14:08:55.026Z,16.50
2022-10-22T14:11:21.951Z,16.50
2022-10-22T14:13:48.629Z,16.50
2022-10-22T14:16:19.956Z,16.50
2022-10-22T14:18:47.953Z,16.50
2022-10-22T14:21:16.438Z,16.50
2022-10-22T14:23:45.016Z,16.50
2022-10-22T14:26:33.241Z,16.60
2022-10-22T14:29:09.748Z,16.50
2022-10-22T14:31:42.556Z,16.60
2022-10-22T14:34:12.779Z,16.60
2022-10-22T14:36:39.539Z,16.70
2022-10-22T14:39:06.229Z,16.60
2022-10-22T14:41:33.127Z,16.60
2022-10-22T14:43:59.992Z,16.60
2022-10-22T14:46:26.817Z,16.60
2022-10-22T14:48:53.475Z,16.60
2022-10-22T14:51:21.521Z,16.60
2022-10-22T14:53:48.509Z,16.60
2022-10-22T14:56:17.864Z,16.60
2022-10-22T14:58:45.571Z,16.50
2022-10-22T15:01:12.907Z,16.50
2022-10-22T15:03:39.708Z,16.50
2022-10-22T15:06:06.952Z,16.50
2022-10-22T15:08:33.913Z,16.50
2022-10-22T15:11:11.545Z,16.50
2022-10-22T15:13:39.328Z,16.50
2022-10-22T15:16:07.413Z,16.50
2022-10-22T15:18:34.180Z,16.40
2022-10-22T15:21:04.111Z,16.40
2022-10-22T15:23:31.232Z,16.40
2022-10-22T15:25:58.083Z,16.40
2022-10-22T15:28:25.164Z,16.40
2022-10-22T15:30:59.477Z,16.40
2022-10-22T15:33:27.468Z,16.40
2022-10-22T15:35:54.574Z,16.30
2022-10-22T15:38:22.014Z,16.30
2022-10-22T15:40:49.365Z,16.30
2022-10-22T15:43:16.045Z,16.30
2022-10-22T15:45:42.725Z,16.30
2022-10-22T15:48:11.400Z,16.30
2022-10-22T15:50:43.345Z,16.30
2022-10-22T15:53:10.434Z,16.30
2022-10-22T15:55:37.123Z,16.30
2022-10-22T15:58:04.333Z,16.20
2022-10-22T16:00:32.181Z,16.20
2022-10-22T16:02:58.824Z,16.10
2022-10-22T16:05:27.200Z,16.10
2022-10-22T16:07:56.402Z,16.00
2022-10-22T16:10:23.713Z,16.00
2022-10-22T16:12:51.685Z,15.90
2022-10-22T16:15:18.385Z,15.90
2022-10-22T16:17:45.094Z,15.80
2022-10-22T16:22:39.819Z,15.70
2022-10-22T16:25:07.140Z,15.70
2022-10-22T16:27:33.826Z,15.50
2022-10-22T16:30:00.515Z,15.50
2022-10-22T16:32:27.325Z,15.40
2022-10-22T16:34:54.060Z,15.40
2022-10-22T16:37:20.839Z,15.40
2022-10-22T16:39:47.586Z,15.30
2022-10-22T16:42:14.899Z,15.20
2022-10-22T16:44:41.681Z,15.30
2022-10-22T16:47:08.545Z,15.20
2022-10-22T16:49:35.234Z,15.20
2022-10-22T16:52:01.990Z,15.10
2022-10-22T16:54:28.789Z,15.10
2022-10-22T16:56:55.483Z,15.00
2022-10-22T16:59:22.295Z,15.00
2022-10-22T17:01:48.995Z,15.00
2022-10-22T17:04:17.384Z,14.90
2022-10-22T17:06:44.252Z,14.90
2022-10-22T17:09:11.925Z,14.80
2022-10-22T17:11:42.494Z,14.80
2022-10-22T17:14:11.198Z,14.70
2022-10-22T17:16:37.866Z,14.70
2022-10-22T17:19:04.873Z,14.70
2022-10-22T17:21:31.681Z,14.70
2022-10-22T17:23:58.571Z,14.60
2022-10-22T17:26:26.737Z,14.60
2022-10-22T17:28:54.352Z,14.50
2022-10-22T17:31:23.724Z,14.50
2022-10-22T17:33:52.264Z,14.40
2022-10-22T17:36:20.042Z,14.30
2022-10-22T17:38:50.468Z,14.30
2022-10-22T17:41:20.489Z,14.30
2022-10-22T17:43:47.769Z,14.20
2022-10-22T17:46:20.953Z,14.20
2022-10-22T17:48:52.088Z,14.20
2022-10-22T17:51:20.455Z,14.10
2022-10-22T17:53:47.561Z,14.10
2022-10-22T17:56:16.949Z,14.10
2022-10-22T17:58:44.101Z,14.10
2022-10-22T18:01:24.839Z,14.10
2022-10-22T18:03:58.353Z,14.10
2022-10-22T18:06:25.007Z,14.00
2022-10-22T18:08:51.819Z,14.00
2022-10-22T18:11:21.907Z,14.00
2022-10-22T18:13:50.249Z,14.00
2022-10-22T18:16:17.804Z,14.00
2022-10-22T18:18:49.625Z,14.00
2022-10-22T18:21:17.558Z,13.90
2022-10-22T18:23:45.706Z,13.90
2022-10-22T18:26:13.425Z,13.90
2022-10-22T18:28:40.296Z,13.90
2022-10-22T18:31:16.350Z,13.80
2022-10-22T18:33:43.072Z,13.80
2022-10-22T18:36:12.643Z,13.80
2022-10-22T18:38:39.403Z,13.80
2022-10-22T18:41:13.504Z,13.80
2022-10-22T18:43:40.207Z,13.80
2022-10-22T18:46:08.021Z,13.70
2022-10-22T18:48:36.126Z,13.70
2022-10-22T18:51:06.882Z,13.70
2022-10-22T18:53:34.222Z,13.70
2022-10-22T18:56:04.294Z,13.60
2022-10-22T18:58:31.107Z,13.60
2022-10-22T19:00:57.925Z,13.60
2022-10-22T19:03:24.691Z,13.50
2022-10-22T19:05:56.388Z,13.50
2022-10-22T19:08:24.116Z,13.50
2022-10-22T19:10:50.829Z,13.50
2022-10-22T19:13:19.427Z,13.50
2022-10-22T19:15:46.198Z,13.50
2022-10-22T19:18:15.035Z,13.50
2022-10-22T19:20:41.813Z,13.50
2022-10-22T19:23:08.547Z,13.50
2022-10-22T19:25:35.346Z,13.50
2022-10-22T19:28:02.061Z,13.50
2022-10-22T19:30:28.746Z,13.50
2022-10-22T19:32:55.531Z,13.60
2022-10-22T19:35:22.424Z,13.60
2022-10-22T19:37:49.170Z,13.60
2022-10-22T19:40:16.150Z,13.60
2022-10-22T19:42:44.378Z,13.60
2022-10-22T19:45:11.583Z,13.60
2022-10-22T19:47:38.600Z,13.60
2022-10-22T19:50:05.712Z,13.60
2022-10-22T19:52:33.309Z,13.60
2022-10-22T19:55:00.088Z,13.60
2022-10-22T19:57:26.794Z,13.60
2022-10-22T19:59:53.491Z,13.60
2022-10-22T20:02:20.219Z,13.70
2022-10-22T20:04:50.019Z,13.70
2022-10-22T20:07:17.046Z,13.70
2022-10-22T20:09:43.905Z,13.70
2022-10-22T20:12:10.569Z,13.70
2022-10-22T20:14:37.501Z,13.70
2022-10-22T20:17:04.419Z,13.70
2022-10-22T20:19:32.617Z,13.60
2022-10-22T20:24:30.881Z,13.60
2022-10-22T20:26:57.609Z,13.60
2022-10-22T20:29:24.421Z,13.60
2022-10-22T20:31:51.142Z,13.50
2022-10-22T20:34:17.949Z,13.50
2022-10-22T20:36:44.724Z,13.50
2022-10-22T20:39:14.647Z,13.50
2022-10-22T20:41:41.498Z,13.50
2022-10-22T20:44:15.000Z,13.50
2022-10-22T20:46:42.025Z,13.50
2022-10-22T20:49:11.887Z,13.50
2022-10-22T20:51:38.692Z,13.40
2022-10-22T20:54:07.363Z,13.40
2022-10-22T20:56:36.291Z,13.40
2022-10-22T20:59:08.117Z,13.40
2022-10-22T21:01:50.671Z,13.40
2022-10-22T21:04:19.602Z,13.40
2022-10-22T21:06:46.459Z,13.40
2022-10-22T21:09:15.426Z,13.40
2022-10-22T21:11:43.714Z,13.40
2022-10-22T21:14:13.538Z,13.40
2022-10-22T21:16:42.394Z,13.40
2022-10-22T21:19:09.347Z,13.50
2022-10-22T21:21:36.157Z,13.50
2022-10-22T21:24:02.979Z,13.50
2022-10-22T21:26:29.920Z,13.50
2022-10-22T21:28:56.699Z,13.50
2022-10-22T21:31:26.183Z,13.60
2022-10-22T21:33:54.194Z,13.50
2022-10-22T21:36:23.175Z,13.50
2022-10-22T21:38:51.799Z,13.50
2022-10-22T21:41:20.146Z,13.60
2022-10-22T21:43:47.083Z,13.50
2022-10-22T21:46:19.521Z,13.50
2022-10-22T21:48:47.187Z,13.50
2022-10-22T21:51:19.991Z,13.50
2022-10-22T21:53:46.874Z,13.50
2022-10-22T21:56:20.243Z,13.60
2022-10-22T21:58:47.789Z,13.60
2022-10-22T22:01:15.080Z,13.60
2022-10-22T22:03:48.031Z,13.60
2022-10-22T22:06:19.098Z,13.60
2022-10-22T22:08:48.430Z,13.70
2022-10-22T22:11:17.822Z,13.70
2022-10-22T22:13:44.990Z,13.70
2022-10-22T22:16:14.356Z,13.70
2022-10-22T22:18:41.554Z,13.70
2022-10-22T22:21:14.476Z,13.70
2022-10-22T22:23:44.560Z,13.70
2022-10-22T22:26:12.629Z,13.70
2022-10-22T22:28:39.829Z,13.80
2022-10-22T22:31:24.971Z,13.80
2022-10-22T22:34:01.465Z,13.90
2022-10-22T22:36:31.730Z,13.90
2022-10-22T22:38:58.507Z,13.90
2022-10-22T22:41:25.217Z,13.90
2022-10-22T22:43:52.169Z,13.90
2022-10-22T22:46:18.866Z,13.90
2022-10-22T22:48:49.355Z,13.90
2022-10-22T22:51:17.217Z,13.90
2022-10-22T22:53:43.987Z,13.90
2022-10-22T22:56:19.883Z,13.80
2022-10-22T22:58:46.697Z,13.80
2022-10-22T23:01:21.224Z,13.80
2022-10-22T23:03:53.908Z,13.80
2022-10-22T23:06:20.644Z,13.80
2022-10-22T23:08:50.167Z,13.70
2022-10-22T23:11:16.947Z,13.80
2022-10-22T23:13:44.086Z,13.90
2022-10-22T23:16:18.510Z,13.90
2022-10-22T23:18:46.943Z,13.90
2022-10-22T23:21:16.477Z,13.80
2022-10-22T23:23:51.770Z,13.80
2022-10-22T23:26:21.866Z,13.80
2022-10-22T23:28:49.045Z,13.70
2022-10-22T23:31:18.062Z,13.80
2022-10-22T23:33:45.530Z,13.70
2022-10-22T23:36:13.032Z,13.70
2022-10-22T23:38:40.818Z,13.70
2022-10-22T23:41:08.350Z,13.70
2022-10-22T23:43:36.229Z,13.70
2022-10-22T23:46:04.395Z,13.70
2022-10-22T23:48:31.436Z,13.70
2022-10-22T23:50:59.080Z,13.70
2022-10-22T23:53:25.796Z,13.70
2022-10-22T23:55:52.557Z,13.60
2022-10-22T23:58:19.223Z,13.60
